sensor_id;sensor_type;location;lat;lon;timestamp;temperature;humidity
60242;SHT30;46103;52.076;113.488;2022-11-14T00:02:12;-13.67;62.74
60242;SHT30;46103;52.076;113.488;2022-11-14T00:06:14;-13.58;63.80
60242;SHT30;46103;52.076;113.488;2022-11-14T00:10:26;-13.54;64.06
60242;SHT30;46103;52.076;113.488;2022-11-14T00:13:50;-13.50;63.83
60242;SHT30;46103;52.076;113.488;2022-11-14T00:17:27;-13.39;63.87
60242;SHT30;46103;52.076;113.488;2022-11-14T00:21:54;-13.26;62.19
60242;SHT30;46103;52.076;113.488;2022-11-14T00:25:43;-13.18;61.62
60242;SHT30;46103;52.076;113.488;2022-11-14T00:29:14;-13.04;61.14
60242;SHT30;46103;52.076;113.488;2022-11-14T00:32:36;-12.91;60.30
60242;SHT30;46103;52.076;113.488;2022-11-14T00:36:02;-12.85;59.51
60242;SHT30;46103;52.076;113.488;2022-11-14T00:39:25;-12.77;58.66
60242;SHT30;46103;52.076;113.488;2022-11-14T00:42:47;-12.74;57.92
60242;SHT30;46103;52.076;113.488;2022-11-14T00:46:10;-12.91;57.76
60242;SHT30;46103;52.076;113.488;2022-11-14T00:49:33;-12.92;57.86
60242;SHT30;46103;52.076;113.488;2022-11-14T00:52:56;-12.83;57.33
60242;SHT30;46103;52.076;113.488;2022-11-14T00:56:18;-12.74;57.05
60242;SHT30;46103;52.076;113.488;2022-11-14T00:59:39;-12.67;56.58
60242;SHT30;46103;52.076;113.488;2022-11-14T01:03:02;-12.63;56.34
60242;SHT30;46103;52.076;113.488;2022-11-14T01:06:24;-12.60;56.56
60242;SHT30;46103;52.076;113.488;2022-11-14T01:09:47;-12.50;56.24
60242;SHT30;46103;52.076;113.488;2022-11-14T01:13:09;-12.45;56.03
60242;SHT30;46103;52.076;113.488;2022-11-14T01:16:32;-12.37;56.41
60242;SHT30;46103;52.076;113.488;2022-11-14T01:19:56;-12.35;55.65
60242;SHT30;46103;52.076;113.488;2022-11-14T01:23:18;-12.29;56.04
60242;SHT30;46103;52.076;113.488;2022-11-14T01:26:40;-12.22;56.05
60242;SHT30;46103;52.076;113.488;2022-11-14T01:30:05;-12.21;55.82
60242;SHT30;46103;52.076;113.488;2022-11-14T01:33:27;-12.14;55.77
60242;SHT30;46103;52.076;113.488;2022-11-14T01:36:50;-12.07;56.12
60242;SHT30;46103;52.076;113.488;2022-11-14T01:40:12;-11.94;56.07
60242;SHT30;46103;52.076;113.488;2022-11-14T01:43:38;-11.78;56.04
60242;SHT30;46103;52.076;113.488;2022-11-14T01:47:01;-11.70;55.58
60242;SHT30;46103;52.076;113.488;2022-11-14T01:50:23;-11.74;55.87
60242;SHT30;46103;52.076;113.488;2022-11-14T01:53:50;-11.74;56.25
60242;SHT30;46103;52.076;113.488;2022-11-14T01:57:19;-11.54;56.23
60242;SHT30;46103;52.076;113.488;2022-11-14T02:00:43;-11.36;55.78
60242;SHT30;46103;52.076;113.488;2022-11-14T02:04:06;-11.21;55.89
60242;SHT30;46103;52.076;113.488;2022-11-14T02:07:37;-10.98;55.76
60242;SHT30;46103;52.076;113.488;2022-11-14T02:11:00;-10.85;56.25
60242;SHT30;46103;52.076;113.488;2022-11-14T02:14:22;-10.67;57.16
60242;SHT30;46103;52.076;113.488;2022-11-14T02:17:44;-10.42;56.65
60242;SHT30;46103;52.076;113.488;2022-11-14T02:21:06;-10.14;57.06
60242;SHT30;46103;52.076;113.488;2022-11-14T02:24:27;-9.95;57.76
60242;SHT30;46103;52.076;113.488;2022-11-14T02:27:50;-9.84;57.09
60242;SHT30;46103;52.076;113.488;2022-11-14T02:31:14;-9.71;56.97
60242;SHT30;46103;52.076;113.488;2022-11-14T02:34:37;-9.56;57.30
60242;SHT30;46103;52.076;113.488;2022-11-14T02:38:00;-9.39;56.89
60242;SHT30;46103;52.076;113.488;2022-11-14T02:41:21;-9.23;57.06
60242;SHT30;46103;52.076;113.488;2022-11-14T02:44:44;-9.12;57.07
60242;SHT30;46103;52.076;113.488;2022-11-14T02:48:06;-8.95;56.88
60242;SHT30;46103;52.076;113.488;2022-11-14T02:51:28;-8.85;56.83
60242;SHT30;46103;52.076;113.488;2022-11-14T02:54:49;-8.93;56.87
60242;SHT30;46103;52.076;113.488;2022-11-14T02:58:14;-8.79;56.76
60242;SHT30;46103;52.076;113.488;2022-11-14T03:01:37;-8.79;57.08
60242;SHT30;46103;52.076;113.488;2022-11-14T03:04:59;-8.57;56.85
60242;SHT30;46103;52.076;113.488;2022-11-14T03:08:21;-8.40;56.69
60242;SHT30;46103;52.076;113.488;2022-11-14T03:11:43;-8.49;56.60
60242;SHT30;46103;52.076;113.488;2022-11-14T03:15:06;-8.43;56.47
60242;SHT30;46103;52.076;113.488;2022-11-14T03:18:28;-8.49;56.72
60242;SHT30;46103;52.076;113.488;2022-11-14T03:21:51;-8.54;56.75
60242;SHT30;46103;52.076;113.488;2022-11-14T03:25:13;-8.68;57.63
60242;SHT30;46103;52.076;113.488;2022-11-14T03:28:36;-8.63;57.15
60242;SHT30;46103;52.076;113.488;2022-11-14T03:31:59;-8.80;58.26
60242;SHT30;46103;52.076;113.488;2022-11-14T03:35:22;-8.87;58.19
60242;SHT30;46103;52.076;113.488;2022-11-14T03:38:44;-8.61;58.08
60242;SHT30;46103;52.076;113.488;2022-11-14T03:42:08;-8.54;57.69
60242;SHT30;46103;52.076;113.488;2022-11-14T03:45:30;-8.40;57.44
60242;SHT30;46103;52.076;113.488;2022-11-14T03:48:53;-8.54;57.84
60242;SHT30;46103;52.076;113.488;2022-11-14T03:52:15;-8.39;57.62
60242;SHT30;46103;52.076;113.488;2022-11-14T03:55:41;-8.36;57.62
60242;SHT30;46103;52.076;113.488;2022-11-14T03:59:03;-8.35;57.70
60242;SHT30;46103;52.076;113.488;2022-11-14T04:02:26;-8.12;57.85
60242;SHT30;46103;52.076;113.488;2022-11-14T04:05:48;-7.98;57.25
60242;SHT30;46103;52.076;113.488;2022-11-14T04:09:11;-7.87;57.23
60242;SHT30;46103;52.076;113.488;2022-11-14T04:12:33;-7.74;56.93
60242;SHT30;46103;52.076;113.488;2022-11-14T04:15:56;-7.71;57.21
60242;SHT30;46103;52.076;113.488;2022-11-14T04:19:19;-7.44;56.71
60242;SHT30;46103;52.076;113.488;2022-11-14T04:22:41;-7.22;56.35
60242;SHT30;46103;52.076;113.488;2022-11-14T04:26:04;-6.98;55.81
60242;SHT30;46103;52.076;113.488;2022-11-14T04:29:26;-6.90;55.36
60242;SHT30;46103;52.076;113.488;2022-11-14T04:32:48;-6.56;54.98
60242;SHT30;46103;52.076;113.488;2022-11-14T04:36:10;-6.02;53.42
60242;SHT30;46103;52.076;113.488;2022-11-14T04:39:32;-5.44;52.22
60242;SHT30;46103;52.076;113.488;2022-11-14T04:42:55;-5.33;51.54
60242;SHT30;46103;52.076;113.488;2022-11-14T04:46:17;-5.11;51.16
60242;SHT30;46103;52.076;113.488;2022-11-14T04:49:39;-4.79;50.45
60242;SHT30;46103;52.076;113.488;2022-11-14T04:53:01;-4.14;48.83
60242;SHT30;46103;52.076;113.488;2022-11-14T04:56:23;-3.97;48.02
60242;SHT30;46103;52.076;113.488;2022-11-14T04:59:46;-4.24;48.28
60242;SHT30;46103;52.076;113.488;2022-11-14T05:03:08;-4.48;49.57
60242;SHT30;46103;52.076;113.488;2022-11-14T05:06:30;-4.60;49.90
60242;SHT30;46103;52.076;113.488;2022-11-14T05:09:53;-4.95;51.44
60242;SHT30;46103;52.076;113.488;2022-11-14T05:13:14;-5.07;51.91
60242;SHT30;46103;52.076;113.488;2022-11-14T05:16:37;-5.01;52.28
60242;SHT30;46103;52.076;113.488;2022-11-14T05:20:00;-4.94;51.99
60242;SHT30;46103;52.076;113.488;2022-11-14T05:23:22;-4.79;51.80
60242;SHT30;46103;52.076;113.488;2022-11-14T05:26:44;-4.60;51.36
60242;SHT30;46103;52.076;113.488;2022-11-14T05:30:08;-4.69;51.71
60242;SHT30;46103;52.076;113.488;2022-11-14T05:33:34;-4.57;51.55
60242;SHT30;46103;52.076;113.488;2022-11-14T05:36:57;-4.39;51.38
60242;SHT30;46103;52.076;113.488;2022-11-14T05:40:19;-4.21;51.08
60242;SHT30;46103;52.076;113.488;2022-11-14T05:43:42;-4.05;50.78
60242;SHT30;46103;52.076;113.488;2022-11-14T05:47:04;-3.83;50.39
60242;SHT30;46103;52.076;113.488;2022-11-14T05:50:26;-3.70;49.95
60242;SHT30;46103;52.076;113.488;2022-11-14T05:53:49;-3.48;49.62
60242;SHT30;46103;52.076;113.488;2022-11-14T05:57:11;-3.27;48.93
60242;SHT30;46103;52.076;113.488;2022-11-14T06:00:33;-3.09;48.17
60242;SHT30;46103;52.076;113.488;2022-11-14T06:04:06;-2.94;48.12
60242;SHT30;46103;52.076;113.488;2022-11-14T06:07:28;-2.91;48.03
60242;SHT30;46103;52.076;113.488;2022-11-14T06:10:51;-2.86;47.94
60242;SHT30;46103;52.076;113.488;2022-11-14T06:14:13;-2.84;48.30
60242;SHT30;46103;52.076;113.488;2022-11-14T06:17:36;-2.77;47.89
60242;SHT30;46103;52.076;113.488;2022-11-14T06:21:03;-2.65;47.90
60242;SHT30;46103;52.076;113.488;2022-11-14T06:24:26;-2.60;47.81
60242;SHT30;46103;52.076;113.488;2022-11-14T06:27:49;-2.35;47.39
60242;SHT30;46103;52.076;113.488;2022-11-14T06:31:13;-2.15;46.61
60242;SHT30;46103;52.076;113.488;2022-11-14T06:34:35;-1.98;46.23
60242;SHT30;46103;52.076;113.488;2022-11-14T06:38:01;-1.80;45.85
60242;SHT30;46103;52.076;113.488;2022-11-14T06:41:23;-1.56;45.14
60242;SHT30;46103;52.076;113.488;2022-11-14T06:44:45;-1.34;44.61
60242;SHT30;46103;52.076;113.488;2022-11-14T06:48:07;-1.16;44.05
60242;SHT30;46103;52.076;113.488;2022-11-14T06:51:31;-0.97;43.36
60242;SHT30;46103;52.076;113.488;2022-11-14T06:54:54;-0.81;43.17
60242;SHT30;46103;52.076;113.488;2022-11-14T06:58:18;-0.60;42.78
60242;SHT30;46103;52.076;113.488;2022-11-14T07:01:41;-0.53;42.45
60242;SHT30;46103;52.076;113.488;2022-11-14T07:05:04;-0.53;42.47
60242;SHT30;46103;52.076;113.488;2022-11-14T07:08:27;-0.45;42.29
60242;SHT30;46103;52.076;113.488;2022-11-14T07:11:50;-0.43;42.19
60242;SHT30;46103;52.076;113.488;2022-11-14T07:15:13;-0.48;42.49
60242;SHT30;46103;52.076;113.488;2022-11-14T07:18:35;-0.55;42.74
60242;SHT30;46103;52.076;113.488;2022-11-14T07:21:58;-0.39;42.66
60242;SHT30;46103;52.076;113.488;2022-11-14T07:25:21;-0.46;42.79
60242;SHT30;46103;52.076;113.488;2022-11-14T07:28:44;-0.25;42.44
60242;SHT30;46103;52.076;113.488;2022-11-14T07:32:12;-0.01;42.19
60242;SHT30;46103;52.076;113.488;2022-11-14T07:35:35;0.00;42.10
60242;SHT30;46103;52.076;113.488;2022-11-14T07:38:57;0.21;41.72
60242;SHT30;46103;52.076;113.488;2022-11-14T07:42:19;0.26;41.52
60242;SHT30;46103;52.076;113.488;2022-11-14T07:45:42;0.33;41.32
60242;SHT30;46103;52.076;113.488;2022-11-14T07:49:04;0.36;41.07
60242;SHT30;46103;52.076;113.488;2022-11-14T07:52:27;0.26;41.55
60242;SHT30;46103;52.076;113.488;2022-11-14T07:55:53;0.26;41.43
60242;SHT30;46103;52.076;113.488;2022-11-14T07:59:16;0.23;41.67
60242;SHT30;46103;52.076;113.488;2022-11-14T08:02:40;0.33;41.77
60242;SHT30;46103;52.076;113.488;2022-11-14T08:06:08;0.30;41.37
60242;SHT30;46103;52.076;113.488;2022-11-14T08:09:31;0.14;41.85
60242;SHT30;46103;52.076;113.488;2022-11-14T08:12:59;0.10;41.85
60242;SHT30;46103;52.076;113.488;2022-11-14T08:16:42;0.03;42.28
60242;SHT30;46103;52.076;113.488;2022-11-14T08:20:06;-0.02;42.57
60242;SHT30;46103;52.076;113.488;2022-11-14T08:23:29;-0.18;42.86
60242;SHT30;46103;52.076;113.488;2022-11-14T08:26:52;-0.35;43.20
60242;SHT30;46103;52.076;113.488;2022-11-14T08:30:13;-0.60;43.99
60242;SHT30;46103;52.076;113.488;2022-11-14T08:33:36;-0.97;44.90
60242;SHT30;46103;52.076;113.488;2022-11-14T08:37:01;-1.48;46.21
60242;SHT30;46103;52.076;113.488;2022-11-14T08:40:23;-1.83;47.28
60242;SHT30;46103;52.076;113.488;2022-11-14T08:43:45;-2.11;48.17
60242;SHT30;46103;52.076;113.488;2022-11-14T08:47:07;-2.38;49.03
60242;SHT30;46103;52.076;113.488;2022-11-14T08:50:30;-2.67;49.96
60242;SHT30;46103;52.076;113.488;2022-11-14T08:53:52;-2.91;50.48
60242;SHT30;46103;52.076;113.488;2022-11-14T08:57:18;-3.11;51.26
60242;SHT30;46103;52.076;113.488;2022-11-14T09:00:42;-3.25;51.53
60242;SHT30;46103;52.076;113.488;2022-11-14T09:04:08;-3.41;52.29
60242;SHT30;46103;52.076;113.488;2022-11-14T09:07:36;-3.52;52.62
60242;SHT30;46103;52.076;113.488;2022-11-14T09:11:02;-3.67;53.30
60242;SHT30;46103;52.076;113.488;2022-11-14T09:14:30;-3.77;53.68
60242;SHT30;46103;52.076;113.488;2022-11-14T09:17:55;-3.87;54.22
60242;SHT30;46103;52.076;113.488;2022-11-14T09:21:17;-3.90;54.20
60242;SHT30;46103;52.076;113.488;2022-11-14T09:24:39;-4.09;54.61
60242;SHT30;46103;52.076;113.488;2022-11-14T09:28:05;-4.09;54.51
60242;SHT30;46103;52.076;113.488;2022-11-14T09:31:27;-4.14;55.16
60242;SHT30;46103;52.076;113.488;2022-11-14T09:34:49;-4.19;55.54
60242;SHT30;46103;52.076;113.488;2022-11-14T09:38:11;-4.30;55.82
60242;SHT30;46103;52.076;113.488;2022-11-14T09:45:42;-4.48;56.34
60242;SHT30;46103;52.076;113.488;2022-11-14T09:49:19;-4.55;56.43
60242;SHT30;46103;52.076;113.488;2022-11-14T09:52:53;-4.69;56.97
60242;SHT30;46103;52.076;113.488;2022-11-14T09:56:20;-4.79;57.13
60242;SHT30;46103;52.076;113.488;2022-11-14T09:59:44;-4.85;57.86
60242;SHT30;46103;52.076;113.488;2022-11-14T10:03:21;-4.94;57.88
60242;SHT30;46103;52.076;113.488;2022-11-14T10:18:07;-5.19;58.21
60242;SHT30;46103;52.076;113.488;2022-11-14T10:37:24;-5.60;59.36
60242;SHT30;46103;52.076;113.488;2022-11-14T10:40:53;-5.71;60.16
60242;SHT30;46103;52.076;113.488;2022-11-14T10:44:20;-5.74;59.91
60242;SHT30;46103;52.076;113.488;2022-11-14T10:47:48;-5.76;59.53
60242;SHT30;46103;52.076;113.488;2022-11-14T10:55:05;-5.88;59.96
60242;SHT30;46103;52.076;113.488;2022-11-14T10:58:27;-6.02;60.28
60242;SHT30;46103;52.076;113.488;2022-11-14T11:05:16;-6.11;61.18
60242;SHT30;46103;52.076;113.488;2022-11-14T11:08:41;-6.09;61.13
60242;SHT30;46103;52.076;113.488;2022-11-14T11:12:23;-6.07;60.94
60242;SHT30;46103;52.076;113.488;2022-11-14T11:15:54;-6.00;60.45
60242;SHT30;46103;52.076;113.488;2022-11-14T11:19:22;-5.95;60.23
60242;SHT30;46103;52.076;113.488;2022-11-14T11:22:45;-5.95;60.43
60242;SHT30;46103;52.076;113.488;2022-11-14T11:29:38;-5.97;59.78
60242;SHT30;46103;52.076;113.488;2022-11-14T11:36:48;-6.02;60.28
60242;SHT30;46103;52.076;113.488;2022-11-14T11:40:17;-5.98;60.10
60242;SHT30;46103;52.076;113.488;2022-11-14T11:43:55;-5.88;59.71
60242;SHT30;46103;52.076;113.488;2022-11-14T11:47:18;-5.94;60.05
60242;SHT30;46103;52.076;113.488;2022-11-14T11:50:41;-5.95;60.11
60242;SHT30;46103;52.076;113.488;2022-11-14T11:54:19;-6.00;60.59
60242;SHT30;46103;52.076;113.488;2022-11-14T11:57:50;-5.98;60.55
60242;SHT30;46103;52.076;113.488;2022-11-14T12:01:29;-5.98;60.47
60242;SHT30;46103;52.076;113.488;2022-11-14T12:04:54;-5.98;60.21
60242;SHT30;46103;52.076;113.488;2022-11-14T12:08:37;-6.11;60.13
60242;SHT30;46103;52.076;113.488;2022-11-14T12:12:19;-6.17;59.66
60242;SHT30;46103;52.076;113.488;2022-11-14T12:16:08;-6.21;59.97
60242;SHT30;46103;52.076;113.488;2022-11-14T12:20:01;-6.32;60.52
60242;SHT30;46103;52.076;113.488;2022-11-14T12:31:27;-6.21;61.75
60242;SHT30;46103;52.076;113.488;2022-11-14T12:34:52;-6.26;61.84
60242;SHT30;46103;52.076;113.488;2022-11-14T12:38:16;-6.22;61.97
60242;SHT30;46103;52.076;113.488;2022-11-14T12:41:42;-6.28;62.39
60242;SHT30;46103;52.076;113.488;2022-11-14T12:49:38;-6.21;61.94
60242;SHT30;46103;52.076;113.488;2022-11-14T12:57:04;-6.24;62.47
60242;SHT30;46103;52.076;113.488;2022-11-14T13:00:32;-6.18;62.28
60242;SHT30;46103;52.076;113.488;2022-11-14T13:12:32;-6.30;61.91
60242;SHT30;46103;52.076;113.488;2022-11-14T13:16:28;-6.42;62.24
60242;SHT30;46103;52.076;113.488;2022-11-14T13:24:05;-6.62;63.22
60242;SHT30;46103;52.076;113.488;2022-11-14T13:27:35;-6.62;63.88
60242;SHT30;46103;52.076;113.488;2022-11-14T13:31:22;-6.67;64.02
60242;SHT30;46103;52.076;113.488;2022-11-14T13:34:52;-6.67;63.55
60242;SHT30;46103;52.076;113.488;2022-11-14T13:38:54;-6.64;63.44
60242;SHT30;46103;52.076;113.488;2022-11-14T13:43:02;-6.69;63.84
60242;SHT30;46103;52.076;113.488;2022-11-14T13:53:31;-6.98;62.13
60242;SHT30;46103;52.076;113.488;2022-11-14T14:16:11;-7.25;65.98
60242;SHT30;46103;52.076;113.488;2022-11-14T14:34:31;-6.74;64.47
60242;SHT30;46103;52.076;113.488;2022-11-14T14:37:55;-6.76;64.29
60242;SHT30;46103;52.076;113.488;2022-11-14T14:41:18;-6.79;64.28
60242;SHT30;46103;52.076;113.488;2022-11-14T14:44:43;-6.80;64.43
60242;SHT30;46103;52.076;113.488;2022-11-14T14:48:32;-6.90;64.94
60242;SHT30;46103;52.076;113.488;2022-11-14T14:52:34;-6.91;64.75
60242;SHT30;46103;52.076;113.488;2022-11-14T14:56:20;-6.97;64.71
60242;SHT30;46103;52.076;113.488;2022-11-14T15:04:39;-7.09;65.35
60242;SHT30;46103;52.076;113.488;2022-11-14T15:08:02;-7.08;65.33
60242;SHT30;46103;52.076;113.488;2022-11-14T15:23:45;-7.21;65.55
60242;SHT30;46103;52.076;113.488;2022-11-14T15:27:20;-7.23;65.80
60242;SHT30;46103;52.076;113.488;2022-11-14T15:31:02;-7.31;65.75
60242;SHT30;46103;52.076;113.488;2022-11-14T15:42:25;-7.01;64.31
60242;SHT30;46103;52.076;113.488;2022-11-14T15:45:50;-7.23;62.73
60242;SHT30;46103;52.076;113.488;2022-11-14T15:49:24;-7.49;61.52
60242;SHT30;46103;52.076;113.488;2022-11-14T15:52:50;-7.81;60.33
60242;SHT30;46103;52.076;113.488;2022-11-14T15:56:14;-8.05;61.22
60242;SHT30;46103;52.076;113.488;2022-11-14T15:59:39;-8.33;61.79
60242;SHT30;46103;52.076;113.488;2022-11-14T16:03:09;-8.50;62.79
60242;SHT30;46103;52.076;113.488;2022-11-14T16:06:32;-8.63;62.81
60242;SHT30;46103;52.076;113.488;2022-11-14T16:09:59;-8.70;62.81
60242;SHT30;46103;52.076;113.488;2022-11-14T16:13:25;-8.71;64.67
60242;SHT30;46103;52.076;113.488;2022-11-14T16:16:49;-8.47;67.47
60242;SHT30;46103;52.076;113.488;2022-11-14T16:20:18;-8.17;65.57
60242;SHT30;46103;52.076;113.488;2022-11-14T16:23:49;-8.09;64.73
60242;SHT30;46103;52.076;113.488;2022-11-14T16:27:18;-7.87;65.18
60242;SHT30;46103;52.076;113.488;2022-11-14T16:30:40;-7.79;65.35
60242;SHT30;46103;52.076;113.488;2022-11-14T16:34:05;-7.81;65.20
60242;SHT30;46103;52.076;113.488;2022-11-14T16:37:28;-7.71;65.31
60242;SHT30;46103;52.076;113.488;2022-11-14T16:40:51;-7.69;65.12
60242;SHT30;46103;52.076;113.488;2022-11-14T16:44:14;-7.63;64.16
60242;SHT30;46103;52.076;113.488;2022-11-14T16:47:38;-7.63;64.66
60242;SHT30;46103;52.076;113.488;2022-11-14T16:51:04;-7.61;64.14
60242;SHT30;46103;52.076;113.488;2022-11-14T16:54:47;-7.64;65.06
60242;SHT30;46103;52.076;113.488;2022-11-14T16:58:10;-7.67;64.63
60242;SHT30;46103;52.076;113.488;2022-11-14T17:01:35;-7.73;65.58
60242;SHT30;46103;52.076;113.488;2022-11-14T17:04:59;-7.76;65.31
60242;SHT30;46103;52.076;113.488;2022-11-14T17:08:23;-7.70;65.81
60242;SHT30;46103;52.076;113.488;2022-11-14T17:11:46;-7.67;65.82
60242;SHT30;46103;52.076;113.488;2022-11-14T17:15:09;-7.60;65.53
60242;SHT30;46103;52.076;113.488;2022-11-14T17:18:33;-7.59;65.50
60242;SHT30;46103;52.076;113.488;2022-11-14T17:22:00;-7.54;65.48
60242;SHT30;46103;52.076;113.488;2022-11-14T17:25:23;-7.50;65.38
60242;SHT30;46103;52.076;113.488;2022-11-14T17:28:45;-7.43;65.06
60242;SHT30;46103;52.076;113.488;2022-11-14T17:32:07;-7.42;64.76
60242;SHT30;46103;52.076;113.488;2022-11-14T17:35:30;-7.39;64.70
60242;SHT30;46103;52.076;113.488;2022-11-14T17:38:52;-7.33;64.63
60242;SHT30;46103;52.076;113.488;2022-11-14T17:42:14;-7.33;64.40
60242;SHT30;46103;52.076;113.488;2022-11-14T17:45:35;-7.32;64.48
60242;SHT30;46103;52.076;113.488;2022-11-14T17:49:02;-7.40;64.47
60242;SHT30;46103;52.076;113.488;2022-11-14T17:52:24;-7.43;64.52
60242;SHT30;46103;52.076;113.488;2022-11-14T17:55:56;-7.53;64.60
60242;SHT30;46103;52.076;113.488;2022-11-14T17:59:18;-7.64;64.44
60242;SHT30;46103;52.076;113.488;2022-11-14T18:02:41;-7.69;64.94
60242;SHT30;46103;52.076;113.488;2022-11-14T18:06:10;-7.73;62.77
60242;SHT30;46103;52.076;113.488;2022-11-14T18:09:32;-7.93;64.52
60242;SHT30;46103;52.076;113.488;2022-11-14T18:12:55;-7.84;65.54
60242;SHT30;46103;52.076;113.488;2022-11-14T18:16:18;-7.80;64.84
60242;SHT30;46103;52.076;113.488;2022-11-14T18:19:40;-7.70;65.25
60242;SHT30;46103;52.076;113.488;2022-11-14T18:23:02;-7.69;63.64
60242;SHT30;46103;52.076;113.488;2022-11-14T18:26:27;-7.66;64.65
60242;SHT30;46103;52.076;113.488;2022-11-14T18:29:50;-7.64;64.69
60242;SHT30;46103;52.076;113.488;2022-11-14T18:33:11;-7.67;64.45
60242;SHT30;46103;52.076;113.488;2022-11-14T18:36:34;-7.61;65.08
60242;SHT30;46103;52.076;113.488;2022-11-14T18:39:56;-7.56;64.51
60242;SHT30;46103;52.076;113.488;2022-11-14T18:43:19;-7.61;64.61
60242;SHT30;46103;52.076;113.488;2022-11-14T18:46:41;-7.56;65.26
60242;SHT30;46103;52.076;113.488;2022-11-14T18:50:05;-7.54;65.50
60242;SHT30;46103;52.076;113.488;2022-11-14T18:53:32;-7.47;65.27
60242;SHT30;46103;52.076;113.488;2022-11-14T18:56:55;-7.50;63.92
60242;SHT30;46103;52.076;113.488;2022-11-14T19:00:17;-7.63;64.12
60242;SHT30;46103;52.076;113.488;2022-11-14T19:03:41;-7.56;64.37
60242;SHT30;46103;52.076;113.488;2022-11-14T19:07:03;-7.57;64.36
60242;SHT30;46103;52.076;113.488;2022-11-14T19:10:26;-7.38;63.98
60242;SHT30;46103;52.076;113.488;2022-11-14T19:13:48;-7.36;64.02
60242;SHT30;46103;52.076;113.488;2022-11-14T19:17:11;-7.40;63.71
60242;SHT30;46103;52.076;113.488;2022-11-14T19:20:34;-7.43;63.80
60242;SHT30;46103;52.076;113.488;2022-11-14T19:23:57;-7.49;63.30
60242;SHT30;46103;52.076;113.488;2022-11-14T19:27:23;-7.50;63.60
60242;SHT30;46103;52.076;113.488;2022-11-14T19:30:45;-7.54;63.57
60242;SHT30;46103;52.076;113.488;2022-11-14T19:34:08;-7.60;64.04
60242;SHT30;46103;52.076;113.488;2022-11-14T19:37:30;-7.60;64.19
60242;SHT30;46103;52.076;113.488;2022-11-14T19:40:52;-7.56;64.37
60242;SHT30;46103;52.076;113.488;2022-11-14T19:44:14;-7.44;64.48
60242;SHT30;46103;52.076;113.488;2022-11-14T19:47:36;-7.33;64.31
60242;SHT30;46103;52.076;113.488;2022-11-14T19:51:06;-7.21;63.79
60242;SHT30;46103;52.076;113.488;2022-11-14T19:54:29;-6.93;62.98
60242;SHT30;46103;52.076;113.488;2022-11-14T19:57:51;-6.80;62.50
60242;SHT30;46103;52.076;113.488;2022-11-14T20:01:15;-6.67;62.02
60242;SHT30;46103;52.076;113.488;2022-11-14T20:04:38;-6.50;61.39
60242;SHT30;46103;52.076;113.488;2022-11-14T20:08:00;-6.35;61.02
60242;SHT30;46103;52.076;113.488;2022-11-14T20:11:22;-6.19;60.21
60242;SHT30;46103;52.076;113.488;2022-11-14T20:14:46;-6.07;59.69
60242;SHT30;46103;52.076;113.488;2022-11-14T20:18:09;-5.97;59.22
60242;SHT30;46103;52.076;113.488;2022-11-14T20:21:32;-5.91;58.99
60242;SHT30;46103;52.076;113.488;2022-11-14T20:24:54;-5.87;58.73
60242;SHT30;46103;52.076;113.488;2022-11-14T20:28:15;-5.86;58.67
60242;SHT30;46103;52.076;113.488;2022-11-14T20:31:38;-5.83;58.57
60242;SHT30;46103;52.076;113.488;2022-11-14T20:35:00;-5.80;58.40
60242;SHT30;46103;52.076;113.488;2022-11-14T20:38:22;-5.73;58.50
60242;SHT30;46103;52.076;113.488;2022-11-14T20:41:45;-5.79;58.45
60242;SHT30;46103;52.076;113.488;2022-11-14T20:45:07;-5.76;58.48
60242;SHT30;46103;52.076;113.488;2022-11-14T20:48:31;-5.77;58.51
60242;SHT30;46103;52.076;113.488;2022-11-14T20:51:54;-5.73;58.49
60242;SHT30;46103;52.076;113.488;2022-11-14T20:55:16;-5.70;58.40
60242;SHT30;46103;52.076;113.488;2022-11-14T20:58:40;-5.64;58.27
60242;SHT30;46103;52.076;113.488;2022-11-14T21:02:02;-5.67;58.03
60242;SHT30;46103;52.076;113.488;2022-11-14T21:05:25;-5.73;57.98
60242;SHT30;46103;52.076;113.488;2022-11-14T21:08:47;-5.81;58.18
60242;SHT30;46103;52.076;113.488;2022-11-14T21:12:09;-5.87;58.37
60242;SHT30;46103;52.076;113.488;2022-11-14T21:15:32;-5.93;58.54
60242;SHT30;46103;52.076;113.488;2022-11-14T21:18:56;-5.98;58.83
60242;SHT30;46103;52.076;113.488;2022-11-14T21:22:18;-6.04;58.96
60242;SHT30;46103;52.076;113.488;2022-11-14T21:25:41;-6.09;58.99
60242;SHT30;46103;52.076;113.488;2022-11-14T21:29:06;-6.22;59.27
60242;SHT30;46103;52.076;113.488;2022-11-14T21:32:30;-6.32;59.49
60242;SHT30;46103;52.076;113.488;2022-11-14T21:35:52;-6.38;59.66
60242;SHT30;46103;52.076;113.488;2022-11-14T21:39:14;-6.50;59.85
60242;SHT30;46103;52.076;113.488;2022-11-14T21:42:37;-6.53;59.90
60242;SHT30;46103;52.076;113.488;2022-11-14T21:46:03;-6.54;60.02
60242;SHT30;46103;52.076;113.488;2022-11-14T21:49:24;-6.53;60.01
60242;SHT30;46103;52.076;113.488;2022-11-14T21:52:47;-6.52;60.01
60242;SHT30;46103;52.076;113.488;2022-11-14T21:56:17;-6.60;60.15
60242;SHT30;46103;52.076;113.488;2022-11-14T21:59:40;-6.60;60.29
60242;SHT30;46103;52.076;113.488;2022-11-14T22:03:03;-6.59;60.37
60242;SHT30;46103;52.076;113.488;2022-11-14T22:06:46;-6.60;60.39
60242;SHT30;46103;52.076;113.488;2022-11-14T22:10:08;-6.53;60.31
60242;SHT30;46103;52.076;113.488;2022-11-14T22:13:31;-6.49;60.09
60242;SHT30;46103;52.076;113.488;2022-11-14T22:16:53;-6.45;60.17
60242;SHT30;46103;52.076;113.488;2022-11-14T22:20:16;-6.38;59.82
60242;SHT30;46103;52.076;113.488;2022-11-14T22:23:38;-6.33;59.78
60242;SHT30;46103;52.076;113.488;2022-11-14T22:27:01;-6.32;59.98
60242;SHT30;46103;52.076;113.488;2022-11-14T22:30:23;-6.29;59.86
60242;SHT30;46103;52.076;113.488;2022-11-14T22:33:49;-6.33;59.99
60242;SHT30;46103;52.076;113.488;2022-11-14T22:37:16;-6.40;60.80
60242;SHT30;46103;52.076;113.488;2022-11-14T22:40:41;-6.56;61.57
60242;SHT30;46103;52.076;113.488;2022-11-14T22:44:04;-6.64;62.35
60242;SHT30;46103;52.076;113.488;2022-11-14T22:47:28;-6.69;62.68
60242;SHT30;46103;52.076;113.488;2022-11-14T22:51:00;-6.66;62.95
60242;SHT30;46103;52.076;113.488;2022-11-14T22:54:59;-6.60;63.06
60242;SHT30;46103;52.076;113.488;2022-11-14T22:58:24;-6.52;62.63
60242;SHT30;46103;52.076;113.488;2022-11-14T23:02:01;-6.45;62.34
60242;SHT30;46103;52.076;113.488;2022-11-14T23:05:51;-6.40;62.63
60242;SHT30;46103;52.076;113.488;2022-11-14T23:09:32;-6.36;62.30
60242;SHT30;46103;52.076;113.488;2022-11-14T23:13:02;-6.36;62.64
60242;SHT30;46103;52.076;113.488;2022-11-14T23:16:39;-6.42;62.90
60242;SHT30;46103;52.076;113.488;2022-11-14T23:20:16;-6.39;63.43